Neillsville, WI (54456)

5:47 PM CST on February 26, 2015 (GMT -0600)
Backyard, N. Andrews Ave | Change Station
CLOSE
Current Station
Personal Weather Station
Location: Greenwood, WI
Elevation: 1161 ft
Nearby Weather Stations
Active Advisory: Special Statement

Elev 1161 ft 44.77 °N, 90.60 °W | Updated 12 seconds ago

Partly Cloudy
Partly Cloudy
6.8 °F
Feels Like -1 °F
N
4.3
Wind Variable Wind from West
Gusts 5.8 mph

Today
High -- | Low -- °F
--% Chance of Precip.
Yesterday
High -- | Low -- °F
Precip. -- in
6:45 AM 5:45 PM
Waxing Gibbous, 63% visible
Pressure 30.42 in
Visibility 10.0 miles
Clouds Clear
Windchill -1 °F
Dew Point -19 °F
Humidity 28%
Rainfall 0.00 in
Snow Depth Not available.
UV 0 out of 12
Pollen .40 out of 12
Air Quality Not available.
Flu Activity Not available.
METAR KMFI 262254Z AUTO 31011KT 10SM CLR M13/M21 A3031 RMK AO2 SLP300 T11331211

More Conditions Fewer Conditions

Pressure 30.42 in
Visibility 10.0 miles
Clouds Clear
Windchill -1 °F
Dew Point -19 °F
Humidity 28%
Rainfall 0.00 in
Snow Depth Not available.
UV 0 out of 12
Pollen .40 out of 12
Air Quality Not available.
Flu Activity Not available.
METAR KMFI 262254Z AUTO 31011KT 10SM CLR M13/M21 A3031 RMK AO2 SLP300 T11331211

More Conditions Fewer Conditions

10-Day Weather Forecast

Almanac

Astronomy

Feb. 26, 2015 Rise Set
Actual Time
Civil Twilight
Nautical Twilight
Astronomical Twilight
Moon
Length of Visible Light
Length of Day
Tomorrow will be .
, % of the Moon is Illuminated

Today's Extremes

State Highs State Lows

Community

WunderPhotos

Upload Photos

1,800,529 photos uploaded!

WunderBlogs® & News

Nearby

Air Quality

  Air Quality AQ Index Pollutant
Not available.

Snow Depth

Station Depth Elevation

Earthquake Activity

City Distance Mag. Time & Date
Minimum magnitude displayed is 2.5.

Coastal Water Temperatures

Place Temperature

Nearby Weather Stations

Special Statement
Statement as of 3:26 PM CST on February 26, 2015

... Another bitterly cold night expected tonight...

Under clear skies... temperatures will fall into the -10 to
-30 degree range late tonight and early Thursday morning. At
times... a light west wind will produce wind chills of -15 to
-35. Wind chills this low can produce frost bite of exposed skin
in less than 30 minutes.


Boyne